Terminal Aerodrome Forecast
Issued by NWS

Home | Current Version | Previous Version | Text Only | Print | Product List | Glossary On
Versions: 1 2 3 4 5 6 7 8 9 10 11 12 13 14 15 16 17 18 19 20 21 22 23 24 25 26 27 28 29 30 31 32 33 34 35 36 37 38 39 40 41
000
FTUS46 KLOX 201216 AAA
TAFLAX
TAF AMD
KLAX 201216Z 2012/2118 10005KT P6SM -RA FEW009 BKN026 OVC050
     FM201400 14015KT 5SM -RA BR BKN025 OVC040
     FM201600 17022G23KT 2SM RA BR VCTS BKN007CB OVC015
     FM202100 22022G32KT 4SM -SHRA BR BKN015 OVC025
     FM210200 26025G35KT P6SM VCSH BKN025
     FM211000 28018G28KT P6SM VCSH SCT025 BKN050
     FM211500 29018G28KT P6SM SCT030 BKN070=

USA.gov is the U.S. government's official web portal to all federal, state and local government web resources and services.